createdAt,value
2022-10-11T00:00:31.542Z,100.00
2022-10-11T00:02:59.515Z,100.00
2022-10-11T00:05:28.651Z,100.00
2022-10-11T00:07:56.958Z,100.00
2022-10-11T00:10:25.454Z,100.00
2022-10-11T00:12:53.254Z,100.00
2022-10-11T00:15:22.757Z,100.00
2022-10-11T00:17:51.025Z,100.00
2022-10-11T00:20:19.012Z,100.00
2022-10-11T00:22:49.320Z,100.00
2022-10-11T00:25:18.066Z,100.00
2022-10-11T00:27:46.260Z,100.00
2022-10-11T00:30:14.943Z,100.00
2022-10-11T00:32:42.670Z,100.00
2022-10-11T00:35:11.177Z,100.00
2022-10-11T00:37:40.116Z,100.00
2022-10-11T00:40:14.391Z,100.00
2022-10-11T00:42:42.208Z,100.00
2022-10-11T00:45:54.967Z,100.00
2022-10-11T00:48:27.478Z,100.00
2022-10-11T00:50:55.959Z,100.00
2022-10-11T00:53:24.256Z,100.00
2022-10-11T00:55:56.700Z,100.00
2022-10-11T00:58:24.968Z,100.00
2022-10-11T01:00:54.097Z,100.00
2022-10-11T01:03:26.185Z,100.00
2022-10-11T01:05:54.208Z,100.00
2022-10-11T01:08:23.230Z,100.00
2022-10-11T01:10:51.302Z,100.00
2022-10-11T01:13:30.741Z,100.00
2022-10-11T01:16:08.955Z,99.37
2022-10-11T01:18:45.064Z,99.47
2022-10-11T01:21:24.959Z,99.00
2022-10-11T01:24:15.953Z,99.74
2022-10-11T01:27:31.134Z,100.00
2022-10-11T01:30:08.643Z,100.00
2022-10-11T01:32:46.040Z,100.00
2022-10-11T01:35:22.246Z,100.00
2022-10-11T01:37:56.091Z,100.00
2022-10-11T01:40:28.790Z,100.00
2022-10-11T01:42:57.923Z,100.00
2022-10-11T01:45:26.597Z,100.00
2022-10-11T01:48:05.002Z,100.00
2022-10-11T01:50:40.287Z,100.00
2022-10-11T01:53:24.259Z,100.00
2022-10-11T01:55:56.452Z,100.00
2022-10-11T01:58:38.609Z,100.00
2022-10-11T02:01:16.679Z,100.00
2022-10-11T02:03:52.385Z,100.00
2022-10-11T02:06:31.425Z,100.00
2022-10-11T02:09:08.245Z,100.00
2022-10-11T02:11:37.461Z,100.00
2022-10-11T02:14:11.909Z,100.00
2022-10-11T02:16:43.892Z,100.00
2022-10-11T02:19:16.112Z,100.00
2022-10-11T02:21:48.255Z,100.00
2022-10-11T02:24:20.619Z,100.00
2022-10-11T02:26:54.669Z,100.00
2022-10-11T02:29:25.617Z,99.62
2022-10-11T02:31:55.520Z,99.79
2022-10-11T02:34:27.545Z,100.00
2022-10-11T02:37:03.355Z,99.89
2022-10-11T02:39:36.724Z,100.00
2022-10-11T02:42:08.087Z,100.00
2022-10-11T02:44:39.956Z,99.30
2022-10-11T02:47:08.725Z,99.01
2022-10-11T02:49:37.980Z,98.33
2022-10-11T02:52:06.930Z,98.03
2022-10-11T02:54:34.789Z,97.82
2022-10-11T02:57:02.515Z,97.71
2022-10-11T02:59:30.201Z,97.28
2022-10-11T03:01:57.951Z,98.60
2022-10-11T03:04:25.759Z,97.95
2022-10-11T03:06:54.862Z,98.01
2022-10-11T03:09:22.634Z,97.51
2022-10-11T03:11:50.367Z,98.11
2022-10-11T03:14:18.112Z,98.35
2022-10-11T03:16:45.844Z,98.63
2022-10-11T03:19:18.319Z,97.78
2022-10-11T03:21:47.246Z,97.81
2022-10-11T03:24:16.350Z,98.02
2022-10-11T03:26:44.078Z,97.83
2022-10-11T03:29:11.900Z,97.73
2022-10-11T03:31:39.665Z,98.56
2022-10-11T03:34:07.778Z,98.97
2022-10-11T03:36:35.455Z,98.44
2022-10-11T03:39:03.600Z,98.19
2022-10-11T03:41:32.897Z,98.42
2022-10-11T03:44:00.599Z,98.29
2022-10-11T03:46:28.382Z,98.51
2022-10-11T03:48:56.069Z,98.61
2022-10-11T03:51:23.824Z,98.65
2022-10-11T03:53:51.557Z,98.58
2022-10-11T03:56:19.310Z,98.65
2022-10-11T03:58:48.405Z,99.29
2022-10-11T04:01:16.394Z,99.93
2022-10-11T04:03:44.154Z,99.48
2022-10-11T04:06:11.866Z,99.60
2022-10-11T04:08:39.872Z,99.71
2022-10-11T04:11:07.586Z,99.91
2022-10-11T04:13:35.283Z,100.00
2022-10-11T04:16:05.002Z,99.78
2022-10-11T04:18:32.809Z,99.52
2022-10-11T04:21:00.544Z,99.36
2022-10-11T04:23:28.407Z,99.28
2022-10-11T04:25:56.174Z,99.32
2022-10-11T04:28:24.031Z,98.68
2022-10-11T04:30:52.153Z,99.54
2022-10-11T04:33:21.800Z,100.00
2022-10-11T04:35:49.764Z,100.00
2022-10-11T04:38:17.499Z,99.70
2022-10-11T04:40:45.266Z,100.00
2022-10-11T04:43:15.264Z,100.00
2022-10-11T04:45:43.227Z,100.00
2022-10-11T04:48:11.272Z,100.00
2022-10-11T04:50:40.458Z,100.00
2022-10-11T04:53:08.161Z,100.00
2022-10-11T04:55:36.290Z,100.00
2022-10-11T04:58:04.032Z,100.00
2022-10-11T05:00:31.907Z,100.00
2022-10-11T05:02:59.658Z,100.00
2022-10-11T05:05:27.534Z,100.00
2022-10-11T05:07:56.580Z,100.00
2022-10-11T05:10:24.421Z,92.30
2022-10-11T05:12:52.174Z,88.05
2022-10-11T05:15:20.050Z,85.90
2022-10-11T05:17:47.893Z,84.16
2022-10-11T05:20:15.883Z,83.48
2022-10-11T05:22:43.732Z,82.07
2022-10-11T05:25:12.848Z,82.86
2022-10-11T05:27:40.620Z,82.99
2022-10-11T05:30:09.562Z,83.44
2022-10-11T05:32:37.865Z,81.87
2022-10-11T05:35:07.007Z,81.57
2022-10-11T05:37:34.779Z,81.54
2022-10-11T05:40:02.536Z,81.50
2022-10-11T05:42:31.718Z,82.67
2022-10-11T05:44:59.477Z,83.41
2022-10-11T05:47:27.194Z,83.58
2022-10-11T05:49:54.880Z,83.85
2022-10-11T05:52:22.663Z,83.66
2022-10-11T05:54:50.697Z,83.72
2022-10-11T05:57:18.534Z,84.01
2022-10-11T05:59:47.595Z,84.90
2022-10-11T06:02:15.341Z,85.59
2022-10-11T06:04:43.101Z,86.46
2022-10-11T06:07:10.846Z,86.60
2022-10-11T06:09:39.675Z,87.48
2022-10-11T06:12:07.737Z,88.30
2022-10-11T06:14:36.336Z,89.63
2022-10-11T06:17:05.411Z,91.17
2022-10-11T06:19:33.512Z,91.56
2022-10-11T06:22:01.318Z,92.11
2022-10-11T06:24:29.020Z,92.08
2022-10-11T06:26:56.980Z,92.04
2022-10-11T06:29:24.689Z,91.11
2022-10-11T06:31:52.511Z,91.09
2022-10-11T06:34:21.744Z,90.68
2022-10-11T06:36:49.486Z,90.04
2022-10-11T06:39:17.265Z,89.03
2022-10-11T06:41:44.969Z,89.06
2022-10-11T06:44:14.446Z,87.83
2022-10-11T06:46:42.760Z,88.63
2022-10-11T06:49:10.476Z,88.43
2022-10-11T06:51:39.819Z,88.00
2022-10-11T06:54:07.592Z,86.77
2022-10-11T06:56:35.356Z,87.15
2022-10-11T06:59:03.559Z,86.54
2022-10-11T07:01:32.725Z,86.07
2022-10-11T07:04:01.664Z,84.09
2022-10-11T07:06:31.102Z,83.97
2022-10-11T07:09:01.914Z,84.00
2022-10-11T07:11:29.955Z,84.36
2022-10-11T07:13:59.229Z,83.84
2022-10-11T07:16:28.470Z,84.14
2022-10-11T07:19:00.721Z,82.27
2022-10-11T07:21:29.745Z,82.19
2022-10-11T07:23:57.507Z,82.33
2022-10-11T07:26:27.081Z,81.28
2022-10-11T07:28:55.049Z,81.68
2022-10-11T07:31:25.130Z,81.68
2022-10-11T07:33:53.242Z,80.64
2022-10-11T07:36:23.260Z,80.48
2022-10-11T07:38:51.356Z,80.13
2022-10-11T07:41:19.587Z,80.03
2022-10-11T07:43:49.841Z,78.95
2022-10-11T07:46:17.977Z,79.45
2022-10-11T07:48:45.777Z,79.83
2022-10-11T07:51:16.204Z,79.19
2022-10-11T07:53:46.091Z,79.88
2022-10-11T07:56:32.222Z,79.28
2022-10-11T07:59:03.510Z,79.53
2022-10-11T08:01:32.296Z,78.91
2022-10-11T08:04:00.203Z,79.03
2022-10-11T08:06:31.652Z,79.93
2022-10-11T08:09:00.883Z,79.02
2022-10-11T08:11:30.122Z,78.70
2022-10-11T08:13:59.345Z,77.65
2022-10-11T08:16:28.571Z,77.78
2022-10-11T08:18:57.165Z,77.91
2022-10-11T08:21:26.939Z,78.51
2022-10-11T08:23:54.755Z,78.46
2022-10-11T08:26:22.573Z,78.35
2022-10-11T08:28:50.405Z,78.06
2022-10-11T08:31:18.351Z,78.01
2022-10-11T08:33:47.878Z,78.21
2022-10-11T08:36:15.856Z,77.17
2022-10-11T08:38:43.608Z,77.21
2022-10-11T08:41:30.539Z,76.93
2022-10-11T08:44:14.897Z,77.09
2022-10-11T08:46:47.731Z,76.56
2022-10-11T08:49:19.193Z,75.07
2022-10-11T08:51:51.932Z,73.74
2022-10-11T08:54:24.069Z,72.90
2022-10-11T08:56:52.267Z,71.43
2022-10-11T08:59:30.114Z,71.30
2022-10-11T09:02:05.017Z,70.69
2022-10-11T09:04:35.199Z,70.27
2022-10-11T09:07:12.430Z,71.65
2022-10-11T09:09:58.040Z,71.04
2022-10-11T09:12:40.805Z,70.52
2022-10-11T09:15:18.725Z,71.74
2022-10-11T09:18:10.029Z,71.63
2022-10-11T09:20:49.001Z,70.69
2022-10-11T09:23:32.893Z,71.10
2022-10-11T09:26:07.484Z,71.38
2022-10-11T09:28:46.790Z,71.19
2022-10-11T09:31:14.597Z,70.48
2022-10-11T09:33:46.928Z,70.81
2022-10-11T09:36:23.525Z,71.13
2022-10-11T09:38:55.855Z,71.11
2022-10-11T09:41:30.375Z,70.99
2022-10-11T09:43:58.130Z,70.89
2022-10-11T09:46:32.839Z,70.42
2022-10-11T09:49:03.775Z,68.20
2022-10-11T09:51:33.893Z,67.91
2022-10-11T09:54:04.927Z,67.55
2022-10-11T09:56:41.127Z,67.40
2022-10-11T09:59:25.365Z,65.72
2022-10-11T10:02:17.789Z,64.62
2022-10-11T10:04:56.837Z,64.31
2022-10-11T10:07:26.713Z,63.61
2022-10-11T10:09:55.023Z,64.22
2022-10-11T10:12:27.187Z,64.40
2022-10-11T10:15:18.757Z,63.78
2022-10-11T10:17:50.658Z,61.88
2022-10-11T10:20:22.814Z,61.11
2022-10-11T10:22:53.699Z,60.36
2022-10-11T10:25:28.591Z,60.63
2022-10-11T10:28:01.276Z,58.84
2022-10-11T10:30:34.535Z,59.24
2022-10-11T10:33:06.960Z,58.49
2022-10-11T10:35:39.523Z,58.06
2022-10-11T10:38:16.421Z,56.11
2022-10-11T10:40:48.447Z,56.52
2022-10-11T10:43:19.213Z,55.81
2022-10-11T10:46:04.204Z,54.67
2022-10-11T10:49:18.765Z,54.83
2022-10-11T10:51:37.094Z,54.19
2022-10-11T10:54:16.462Z,54.04
2022-10-11T10:56:51.381Z,54.93
2022-10-11T10:59:43.163Z,54.97
2022-10-11T11:02:38.954Z,54.26
2022-10-11T11:05:16.411Z,52.88
2022-10-11T11:07:49.422Z,52.17
2022-10-11T11:10:21.988Z,53.12
2022-10-11T11:12:57.274Z,52.81
2022-10-11T11:15:35.584Z,51.33
2022-10-11T11:18:20.288Z,51.07
2022-10-11T11:21:03.082Z,51.38
2022-10-11T11:23:39.359Z,50.99
2022-10-11T11:26:16.547Z,50.59
2022-10-11T11:29:12.422Z,49.90
2022-10-11T11:31:57.313Z,49.24
2022-10-11T11:34:29.595Z,49.58
2022-10-11T11:37:01.067Z,48.67
2022-10-11T11:39:34.012Z,48.86
2022-10-11T11:42:13.112Z,48.60
2022-10-11T11:44:45.098Z,49.13
2022-10-11T11:47:20.017Z,49.06
2022-10-11T11:49:52.143Z,49.49
2022-10-11T11:52:27.348Z,50.17
2022-10-11T11:55:06.518Z,49.32
2022-10-11T11:57:50.540Z,48.23
2022-10-11T12:00:21.743Z,48.47
2022-10-11T12:02:54.384Z,48.00
2022-10-11T12:05:24.303Z,47.81
2022-10-11T12:07:56.695Z,47.75
2022-10-11T12:10:28.558Z,47.49
2022-10-11T12:13:20.166Z,45.59
2022-10-11T12:16:10.957Z,44.76
2022-10-11T12:18:50.972Z,45.14
2022-10-11T12:21:31.914Z,45.03
2022-10-11T12:24:00.979Z,43.55
2022-10-11T12:26:42.923Z,44.44
2022-10-11T12:29:47.010Z,44.79
2022-10-11T12:32:51.335Z,45.47
2022-10-11T12:36:01.390Z,45.03
2022-10-11T12:38:34.235Z,43.75
2022-10-11T12:41:38.268Z,44.08
2022-10-11T12:44:14.388Z,43.46
2022-10-11T12:47:11.174Z,44.68
2022-10-11T12:49:54.400Z,45.50
2022-10-11T12:52:28.349Z,45.87
2022-10-11T12:55:08.897Z,47.18
2022-10-11T12:57:52.629Z,47.54
2022-10-11T13:00:25.964Z,48.11
2022-10-11T13:02:56.339Z,47.91
2022-10-11T13:05:27.576Z,47.10
2022-10-11T13:07:58.735Z,46.53
2022-10-11T13:10:31.764Z,46.61
2022-10-11T13:13:04.347Z,45.63
2022-10-11T13:15:32.577Z,45.01
2022-10-11T13:18:02.529Z,45.40
2022-10-11T13:20:32.289Z,45.28
2022-10-11T13:23:00.053Z,45.17
2022-10-11T13:25:29.888Z,45.43
2022-10-11T13:27:59.478Z,44.85
2022-10-11T13:30:30.532Z,44.51
2022-10-11T13:32:59.916Z,45.42
2022-10-11T13:35:33.571Z,45.11
2022-10-11T13:38:02.139Z,44.54
2022-10-11T13:40:31.822Z,44.77
2022-10-11T13:43:00.113Z,44.40
2022-10-11T13:45:30.633Z,44.33
2022-10-11T13:47:58.786Z,43.43
2022-10-11T13:50:32.261Z,42.42
2022-10-11T13:53:04.420Z,42.23
2022-10-11T13:55:35.270Z,41.85
2022-10-11T13:58:05.092Z,41.75
2022-10-11T14:00:35.324Z,41.91
2022-10-11T14:03:08.064Z,41.95
2022-10-11T14:05:39.947Z,42.17
2022-10-11T14:08:23.550Z,42.49
2022-10-11T14:10:56.686Z,43.45
2022-10-11T14:13:31.061Z,44.27
2022-10-11T14:16:07.507Z,44.60
2022-10-11T14:18:50.900Z,45.53
2022-10-11T14:21:25.630Z,45.58
2022-10-11T14:23:56.436Z,46.48
2022-10-11T14:26:26.282Z,46.34
2022-10-11T14:28:57.940Z,46.48
2022-10-11T14:31:26.009Z,46.73
2022-10-11T14:33:54.780Z,47.26
2022-10-11T14:36:23.106Z,48.08
2022-10-11T14:38:50.999Z,48.84
2022-10-11T14:41:20.056Z,49.24
2022-10-11T14:43:47.900Z,47.03
2022-10-11T14:46:22.825Z,47.49
2022-10-11T14:48:55.629Z,48.34
2022-10-11T14:51:28.921Z,48.86
2022-10-11T14:53:56.727Z,48.77
2022-10-11T14:56:25.940Z,48.63
2022-10-11T14:58:53.785Z,49.04
2022-10-11T15:01:21.625Z,49.75
2022-10-11T15:03:49.466Z,49.66
2022-10-11T15:06:20.296Z,49.95
2022-10-11T15:08:48.120Z,50.81
2022-10-11T15:11:18.300Z,50.60
2022-10-11T15:13:47.485Z,51.02
2022-10-11T15:16:17.290Z,51.60
2022-10-11T15:18:50.660Z,51.32
2022-10-11T15:21:19.702Z,51.80
2022-10-11T15:23:47.650Z,51.64
2022-10-11T15:26:16.394Z,50.73
2022-10-11T15:28:44.334Z,50.47
2022-10-11T15:31:14.042Z,51.30
2022-10-11T15:33:42.505Z,50.96
2022-10-11T15:36:14.201Z,51.59
2022-10-11T15:38:42.702Z,52.71
2022-10-11T15:41:12.897Z,52.51
2022-10-11T15:43:40.824Z,52.96
2022-10-11T15:46:09.227Z,52.89
2022-10-11T15:48:38.866Z,53.51
2022-10-11T15:51:07.750Z,54.32
2022-10-11T15:53:35.733Z,55.67
2022-10-11T15:56:05.903Z,57.09
2022-10-11T15:58:36.393Z,58.19
2022-10-11T16:01:07.762Z,58.83
2022-10-11T16:03:36.555Z,59.35
2022-10-11T16:06:06.153Z,59.64
2022-10-11T16:08:34.116Z,60.26
2022-10-11T16:11:02.235Z,60.54
2022-10-11T16:13:30.034Z,61.26
2022-10-11T16:15:58.278Z,61.41
2022-10-11T16:18:26.044Z,61.34
2022-10-11T16:20:53.773Z,62.43
2022-10-11T16:23:23.648Z,63.16
2022-10-11T16:25:58.035Z,63.37
2022-10-11T16:28:26.289Z,64.56
2022-10-11T16:30:54.649Z,65.01
2022-10-11T16:33:22.657Z,65.17
2022-10-11T16:35:50.682Z,64.92
2022-10-11T16:38:18.437Z,66.06
2022-10-11T16:40:47.516Z,65.79
2022-10-11T16:43:15.320Z,66.15
2022-10-11T16:45:42.985Z,66.86
2022-10-11T16:48:10.733Z,67.64
2022-10-11T16:50:39.705Z,68.18
2022-10-11T16:53:07.731Z,69.02
2022-10-11T16:55:35.434Z,68.90
2022-10-11T16:58:04.509Z,68.82
2022-10-11T17:00:32.289Z,69.15
2022-10-11T17:03:00.058Z,69.33
2022-10-11T17:05:27.900Z,69.67
2022-10-11T17:07:55.608Z,69.90
2022-10-11T17:10:39.372Z,70.03
2022-10-11T17:13:08.645Z,70.39
2022-10-11T17:15:37.244Z,69.85
2022-10-11T17:18:05.145Z,70.52
2022-10-11T17:20:32.926Z,71.25
2022-10-11T17:23:00.625Z,71.56
2022-10-11T17:25:28.370Z,71.32
2022-10-11T17:27:56.371Z,71.47
2022-10-11T17:30:26.084Z,71.71
2022-10-11T17:32:53.909Z,72.79
2022-10-11T17:35:21.648Z,73.57
2022-10-11T17:37:49.898Z,73.67
2022-10-11T17:40:17.775Z,73.83
2022-10-11T17:42:47.682Z,74.28
2022-10-11T17:45:15.526Z,74.38
2022-10-11T17:47:44.586Z,74.58
2022-10-11T17:50:12.505Z,75.05
2022-10-11T17:52:40.488Z,75.53
2022-10-11T17:55:08.830Z,75.60
2022-10-11T17:57:36.758Z,76.57
2022-10-11T18:00:06.518Z,76.71
2022-10-11T18:02:34.244Z,76.95
2022-10-11T18:05:04.253Z,77.20
2022-10-11T18:07:31.977Z,76.89
2022-10-11T18:09:59.679Z,77.08
2022-10-11T18:12:27.443Z,76.89
2022-10-11T18:14:55.168Z,76.90
2022-10-11T18:17:22.927Z,77.32
2022-10-11T18:19:50.737Z,76.78
2022-10-11T18:22:19.862Z,76.58
2022-10-11T18:24:47.777Z,76.35
2022-10-11T18:27:15.585Z,76.55
2022-10-11T18:29:43.605Z,76.27
2022-10-11T18:32:12.066Z,77.04
2022-10-11T18:34:39.958Z,76.64
2022-10-11T18:37:07.773Z,76.82
2022-10-11T18:39:36.864Z,76.09
2022-10-11T18:42:05.065Z,76.71
2022-10-11T18:44:32.868Z,76.54
2022-10-11T18:47:00.580Z,77.30
2022-10-11T18:49:28.433Z,77.47
2022-10-11T18:51:56.381Z,77.51
2022-10-11T18:54:24.103Z,77.44
2022-10-11T18:56:53.207Z,77.78
2022-10-11T18:59:21.135Z,78.18
2022-10-11T19:01:52.081Z,78.13
2022-10-11T19:04:20.713Z,77.98
2022-10-11T19:06:49.427Z,77.93
2022-10-11T19:09:21.564Z,77.99
2022-10-11T19:11:50.473Z,78.18
2022-10-11T19:14:22.652Z,77.95
2022-10-11T19:16:52.185Z,78.20
2022-10-11T19:19:21.067Z,77.83
2022-10-11T19:21:49.529Z,77.28
2022-10-11T19:24:17.633Z,76.79
2022-10-11T19:26:45.533Z,77.09
2022-10-11T19:29:15.301Z,76.81
2022-10-11T19:31:46.079Z,77.12
2022-10-11T19:34:14.140Z,77.01
2022-10-11T19:36:42.858Z,77.35
2022-10-11T19:39:12.916Z,77.14
2022-10-11T19:41:41.368Z,77.58
2022-10-11T19:44:09.352Z,77.34
2022-10-11T19:46:50.876Z,77.36
2022-10-11T19:49:22.627Z,77.66
2022-10-11T19:51:50.993Z,77.36
2022-10-11T19:54:19.779Z,76.91
2022-10-11T19:56:47.712Z,76.47
2022-10-11T19:59:15.865Z,76.54
2022-10-11T20:01:47.907Z,76.66
2022-10-11T20:04:50.925Z,76.87
2022-10-11T20:07:08.693Z,77.25
2022-10-11T20:09:36.678Z,77.00
2022-10-11T20:12:04.615Z,77.25
2022-10-11T20:14:32.358Z,77.15
2022-10-11T20:17:00.431Z,77.50
2022-10-11T20:19:31.738Z,76.86
2022-10-11T20:22:00.140Z,77.31
2022-10-11T20:24:32.638Z,76.18
2022-10-11T20:27:01.455Z,76.37
2022-10-11T20:29:29.205Z,76.40
2022-10-11T20:31:58.956Z,75.68
2022-10-11T20:34:27.649Z,76.10
2022-10-11T20:36:56.772Z,75.75
2022-10-11T20:39:24.811Z,75.85
2022-10-11T20:41:52.635Z,75.72
2022-10-11T20:44:20.383Z,75.86
2022-10-11T20:46:48.357Z,75.94
2022-10-11T20:49:16.115Z,75.95
2022-10-11T20:51:43.877Z,75.85
2022-10-11T20:54:13.482Z,75.42
2022-10-11T20:56:41.909Z,75.90
2022-10-11T20:59:10.074Z,75.48
2022-10-11T21:01:40.376Z,75.70
2022-10-11T21:04:09.302Z,75.54
2022-10-11T21:06:37.028Z,75.28
2022-10-11T21:09:04.884Z,75.53
2022-10-11T21:11:35.517Z,75.00
2022-10-11T21:14:04.783Z,74.83
2022-10-11T21:16:33.175Z,74.56
2022-10-11T21:19:02.846Z,74.93
2022-10-11T21:21:31.642Z,74.86
2022-10-11T21:24:00.865Z,75.45
2022-10-11T21:26:29.667Z,75.92
2022-10-11T21:29:00.270Z,75.81
2022-10-11T21:31:33.585Z,75.88
2022-10-11T21:34:01.946Z,76.34
2022-10-11T21:36:29.643Z,76.99
2022-10-11T21:38:57.725Z,77.33
2022-10-11T21:41:29.076Z,77.28
2022-10-11T21:43:58.590Z,76.94
2022-10-11T21:46:47.935Z,77.16
2022-10-11T21:49:16.398Z,76.94
2022-10-11T21:51:44.346Z,77.29
2022-10-11T21:54:12.126Z,77.47
2022-10-11T21:56:39.839Z,77.70
2022-10-11T21:59:12.020Z,77.69
2022-10-11T22:01:40.794Z,77.82
2022-10-11T22:04:09.005Z,77.87
2022-10-11T22:06:37.403Z,77.83
2022-10-11T22:09:05.338Z,78.48
2022-10-11T22:11:33.205Z,78.77
2022-10-11T22:14:00.889Z,79.23
2022-10-11T22:16:29.961Z,79.88
2022-10-11T22:18:57.733Z,80.07
2022-10-11T22:21:25.504Z,80.42
2022-10-11T22:23:54.686Z,79.41
2022-10-11T22:26:24.826Z,78.98
2022-10-11T22:28:53.344Z,79.65
2022-10-11T22:31:22.059Z,78.83
2022-10-11T22:33:54.468Z,79.15
2022-10-11T22:36:24.150Z,79.49
2022-10-11T22:38:52.457Z,79.48
2022-10-11T22:41:20.482Z,79.03
2022-10-11T22:43:48.158Z,78.96
2022-10-11T22:46:16.002Z,79.75
2022-10-11T22:48:43.737Z,80.27
2022-10-11T22:51:13.613Z,80.14
2022-10-11T22:53:41.254Z,79.66
2022-10-11T22:56:10.716Z,79.39
2022-10-11T22:58:38.511Z,79.25
2022-10-11T23:01:10.361Z,79.59
2022-10-11T23:03:38.310Z,80.33
2022-10-11T23:06:06.458Z,80.35
2022-10-11T23:08:36.632Z,80.39
2022-10-11T23:11:05.665Z,80.57
2022-10-11T23:13:33.921Z,80.22
2022-10-11T23:16:06.674Z,80.20
2022-10-11T23:18:34.180Z,79.62
2022-10-11T23:21:02.491Z,79.74
2022-10-11T23:23:30.407Z,79.28
2022-10-11T23:26:04.941Z,79.23
2022-10-11T23:28:32.861Z,79.54
2022-10-11T23:31:00.676Z,79.63
2022-10-11T23:33:29.058Z,80.04
2022-10-11T23:35:56.811Z,79.93
2022-10-11T23:38:24.576Z,80.22
2022-10-11T23:40:52.343Z,79.81
2022-10-11T23:43:21.575Z,80.16
2022-10-11T23:45:49.416Z,80.37
2022-10-11T23:48:17.131Z,80.70
2022-10-11T23:50:44.819Z,80.10
2022-10-11T23:53:14.185Z,79.74
2022-10-11T23:55:42.959Z,79.71
2022-10-11T23:58:10.728Z,80.10
